Stavropol', Russia

11:02 AM MSK on September 03, 2014 (GMT +0400)
Shpakovskoye | Change Station
CLOSE
Current Station
Airport
Location: Stavropol',
Elevation: 1483 ft
Nearby Weather Stations

Elev 1483 ft 45.12 °N, 42.08 °E | Updated 32 minutes ago

Mostly Cloudy
Mostly Cloudy
75 °F
Feels Like 75 °F
N
18
Wind Variable Wind from ESE
Gusts 25 mph

Today
High -- | Low -- °F
--% Chance of Precip.
Yesterday
High -- | Low -- °F
Precip. -- in
6:35 AM 7:45 PM
First Quarter, 59% visible
Pressure 29.95 in
Visibility 6.2 miles
Clouds Mostly Cloudy 2000 ft
Dew Point 63 °F
Humidity 65%
Rainfall 0.00 in
Snow Depth Not available.
UV 2 out of 12
Pollen Not available.
Air Quality Not available.
Flu Activity Not available.
METAR URMT 030630Z 12008G11MPS 9999 BKN020 24/17 Q1014 NOSIG RMK QFE721 SC070

More Conditions Fewer Conditions

Pressure 29.95 in
Visibility 6.2 miles
Clouds Mostly Cloudy 2000 ft
Dew Point 63 °F
Humidity 65%
Rainfall 0.00 in
Snow Depth Not available.
UV 2 out of 12
Pollen Not available.
Air Quality Not available.
Flu Activity Not available.
METAR URMT 030630Z 12008G11MPS 9999 BKN020 24/17 Q1014 NOSIG RMK QFE721 SC070

More Conditions Fewer Conditions

10-Day Weather Forecast

Almanac

Astronomy

Sep. 03, 2014 Rise Set
Actual Time 6:35 AM MSK 7:45 PM MSK
Civil Twilight 6:05 AM MSK 8:16 PM MSK
Nautical Twilight 5:28 AM MSK 8:52 PM MSK
Astronomical Twilight 4:50 AM MSK 9:30 PM MSK
Moon 3:15 PM MSK 12:02 AM MSK
Length of Visible Light 14h 10m
Length of Day
13h 10m
Tomorrow will be 3m 3s shorter.
First Quarter, 59% of the Moon is Illuminated
Today
First Quarter
Sep 8
Full
Sep 15
Last Quarter
Sep 24
New
Oct 1
First Quarter

Yesterday's Extremes

Country Highs Country Lows

Community

WunderPhotos

Upload Photos

1,749,888 photos uploaded!

Nearby

Snow Depth

Not available.

Earthquake Activity

City Distance Mag. Time & Date
No recent earthquake activity has been reported nearby.
Minimum magnitude displayed is 2.5.

Coastal Water Temperatures

Place Temperature
No Stations Reporting

Nearby Weather Stations